sensor_id;sensor_type;location;lat;lon;timestamp;pressure;altitude;pressure_sealevel;temperature;humidity
24858;BME280;12935;50.782;6.074;2023-05-23T00:02:24;99722.50;;;14.79;100.00
24858;BME280;12935;50.782;6.074;2023-05-23T00:04:50;99716.31;;;14.71;100.00
24858;BME280;12935;50.782;6.074;2023-05-23T00:07:16;99718.97;;;14.78;100.00
24858;BME280;12935;50.782;6.074;2023-05-23T00:09:41;99724.81;;;14.80;100.00
24858;BME280;12935;50.782;6.074;2023-05-23T00:12:07;99728.69;;;14.83;100.00
24858;BME280;12935;50.782;6.074;2023-05-23T00:14:32;99726.06;;;14.76;100.00
24858;BME280;12935;50.782;6.074;2023-05-23T00:16:59;99719.44;;;14.73;100.00
24858;BME280;12935;50.782;6.074;2023-05-23T00:19:29;99708.38;;;14.77;100.00
24858;BME280;12935;50.782;6.074;2023-05-23T00:21:54;99723.31;;;14.76;100.00
24858;BME280;12935;50.782;6.074;2023-05-23T00:24:22;99716.28;;;14.74;100.00
24858;BME280;12935;50.782;6.074;2023-05-23T00:26:48;99715.44;;;14.78;100.00
24858;BME280;12935;50.782;6.074;2023-05-23T00:29:14;99712.72;;;14.74;100.00
24858;BME280;12935;50.782;6.074;2023-05-23T00:31:43;99721.63;;;14.82;100.00
24858;BME280;12935;50.782;6.074;2023-05-23T00:34:11;99718.13;;;14.81;100.00
24858;BME280;12935;50.782;6.074;2023-05-23T00:36:37;99720.88;;;14.81;100.00
24858;BME280;12935;50.782;6.074;2023-05-23T00:39:02;99727.63;;;14.77;100.00
24858;BME280;12935;50.782;6.074;2023-05-23T00:41:29;99724.09;;;14.76;100.00
24858;BME280;12935;50.782;6.074;2023-05-23T00:43:56;99719.78;;;14.75;100.00
24858;BME280;12935;50.782;6.074;2023-05-23T00:46:24;99720.22;;;14.73;100.00
24858;BME280;12935;50.782;6.074;2023-05-23T00:48:50;99722.19;;;14.73;100.00
24858;BME280;12935;50.782;6.074;2023-05-23T00:51:15;99719.09;;;14.67;100.00
24858;BME280;12935;50.782;6.074;2023-05-23T00:53:41;99710.56;;;14.62;100.00
24858;BME280;12935;50.782;6.074;2023-05-23T00:56:07;99711.47;;;14.52;100.00
24858;BME280;12935;50.782;6.074;2023-05-23T00:58:33;99724.44;;;14.51;100.00
24858;BME280;12935;50.782;6.074;2023-05-23T01:00:58;99725.75;;;14.43;100.00
24858;BME280;12935;50.782;6.074;2023-05-23T01:03:24;99726.16;;;14.42;100.00
24858;BME280;12935;50.782;6.074;2023-05-23T01:05:52;99726.72;;;14.29;100.00
24858;BME280;12935;50.782;6.074;2023-05-23T01:08:18;99729.91;;;14.24;100.00
24858;BME280;12935;50.782;6.074;2023-05-23T01:10:43;99725.63;;;14.20;100.00
24858;BME280;12935;50.782;6.074;2023-05-23T01:13:38;99732.31;;;14.19;100.00
24858;BME280;12935;50.782;6.074;2023-05-23T01:16:12;99737.56;;;14.10;100.00
24858;BME280;12935;50.782;6.074;2023-05-23T01:18:47;99736.41;;;14.07;100.00
24858;BME280;12935;50.782;6.074;2023-05-23T01:21:16;99732.53;;;14.01;100.00
24858;BME280;12935;50.782;6.074;2023-05-23T01:29:33;99752.19;;;13.99;100.00
24858;BME280;12935;50.782;6.074;2023-05-23T01:32:02;99753.81;;;13.97;100.00
24858;BME280;12935;50.782;6.074;2023-05-23T01:34:31;99746.75;;;13.96;100.00
24858;BME280;12935;50.782;6.074;2023-05-23T01:36:59;99747.16;;;13.94;100.00
24858;BME280;12935;50.782;6.074;2023-05-23T01:39:24;99754.22;;;13.95;100.00
24858;BME280;12935;50.782;6.074;2023-05-23T01:41:50;99731.84;;;13.93;100.00
24858;BME280;12935;50.782;6.074;2023-05-23T01:44:17;99744.84;;;13.89;100.00
24858;BME280;12935;50.782;6.074;2023-05-23T01:46:43;99751.16;;;13.86;100.00
24858;BME280;12935;50.782;6.074;2023-05-23T01:49:11;99754.28;;;13.88;100.00
24858;BME280;12935;50.782;6.074;2023-05-23T01:51:38;99762.50;;;13.88;100.00
24858;BME280;12935;50.782;6.074;2023-05-23T01:54:03;99769.59;;;13.86;100.00
24858;BME280;12935;50.782;6.074;2023-05-23T01:56:29;99768.47;;;13.83;100.00
24858;BME280;12935;50.782;6.074;2023-05-23T01:58:55;99755.94;;;13.82;100.00
24858;BME280;12935;50.782;6.074;2023-05-23T02:01:20;99771.25;;;13.80;100.00
24858;BME280;12935;50.782;6.074;2023-05-23T02:03:46;99765.34;;;13.81;100.00
24858;BME280;12935;50.782;6.074;2023-05-23T02:06:11;99767.69;;;13.83;100.00
24858;BME280;12935;50.782;6.074;2023-05-23T02:08:37;99775.16;;;13.82;100.00
24858;BME280;12935;50.782;6.074;2023-05-23T02:11:02;99773.59;;;13.81;100.00
24858;BME280;12935;50.782;6.074;2023-05-23T02:13:28;99769.31;;;13.77;100.00
24858;BME280;12935;50.782;6.074;2023-05-23T02:15:53;99772.06;;;13.77;100.00
24858;BME280;12935;50.782;6.074;2023-05-23T02:18:19;99780.75;;;13.72;100.00
24858;BME280;12935;50.782;6.074;2023-05-23T02:20:44;99782.00;;;13.63;100.00
24858;BME280;12935;50.782;6.074;2023-05-23T02:23:10;99775.34;;;13.61;100.00
24858;BME280;12935;50.782;6.074;2023-05-23T02:25:35;99781.25;;;13.59;100.00
24858;BME280;12935;50.782;6.074;2023-05-23T02:28:00;99779.72;;;13.55;100.00
24858;BME280;12935;50.782;6.074;2023-05-23T02:30:25;99782.44;;;13.58;100.00
24858;BME280;12935;50.782;6.074;2023-05-23T02:32:51;99774.56;;;13.60;100.00
24858;BME280;12935;50.782;6.074;2023-05-23T02:35:16;99782.41;;;13.62;100.00
24858;BME280;12935;50.782;6.074;2023-05-23T02:37:41;99773.09;;;13.52;100.00
24858;BME280;12935;50.782;6.074;2023-05-23T02:40:07;99787.97;;;13.55;100.00
24858;BME280;12935;50.782;6.074;2023-05-23T02:42:33;99786.00;;;13.55;100.00
24858;BME280;12935;50.782;6.074;2023-05-23T02:44:58;99786.84;;;13.49;100.00
24858;BME280;12935;50.782;6.074;2023-05-23T02:47:24;99794.72;;;13.47;100.00
24858;BME280;12935;50.782;6.074;2023-05-23T02:49:49;99784.50;;;13.47;100.00
24858;BME280;12935;50.782;6.074;2023-05-23T02:52:14;99797.44;;;13.50;100.00
24858;BME280;12935;50.782;6.074;2023-05-23T02:54:41;99797.81;;;13.52;100.00
24858;BME280;12935;50.782;6.074;2023-05-23T02:57:06;99797.03;;;13.52;100.00
24858;BME280;12935;50.782;6.074;2023-05-23T02:59:31;99791.47;;;13.55;100.00
24858;BME280;12935;50.782;6.074;2023-05-23T03:01:56;99793.09;;;13.53;100.00
24858;BME280;12935;50.782;6.074;2023-05-23T03:04:22;99796.63;;;13.53;100.00
24858;BME280;12935;50.782;6.074;2023-05-23T03:06:47;99799.72;;;13.55;100.00
24858;BME280;12935;50.782;6.074;2023-05-23T03:09:14;99791.53;;;13.52;100.00
24858;BME280;12935;50.782;6.074;2023-05-23T03:11:41;99799.38;;;13.53;100.00
24858;BME280;12935;50.782;6.074;2023-05-23T03:14:06;99806.34;;;13.61;100.00
24858;BME280;12935;50.782;6.074;2023-05-23T03:16:32;99810.28;;;13.60;100.00
24858;BME280;12935;50.782;6.074;2023-05-23T03:18:57;99797.81;;;13.52;100.00
24858;BME280;12935;50.782;6.074;2023-05-23T03:21:23;99805.63;;;13.54;100.00
24858;BME280;12935;50.782;6.074;2023-05-23T03:23:48;99815.41;;;13.55;100.00
24858;BME280;12935;50.782;6.074;2023-05-23T03:26:14;99818.53;;;13.57;100.00
24858;BME280;12935;50.782;6.074;2023-05-23T03:28:40;99819.69;;;13.59;100.00
24858;BME280;12935;50.782;6.074;2023-05-23T03:31:05;99814.28;;;13.52;100.00
24858;BME280;12935;50.782;6.074;2023-05-23T03:33:30;99819.00;;;13.48;100.00
24858;BME280;12935;50.782;6.074;2023-05-23T03:35:56;99819.00;;;13.52;100.00
24858;BME280;12935;50.782;6.074;2023-05-23T03:38:21;99819.41;;;13.50;100.00
24858;BME280;12935;50.782;6.074;2023-05-23T03:40:46;99818.63;;;13.50;100.00
24858;BME280;12935;50.782;6.074;2023-05-23T03:43:12;99824.09;;;13.50;100.00
24858;BME280;12935;50.782;6.074;2023-05-23T03:45:38;99818.59;;;13.53;100.00
24858;BME280;12935;50.782;6.074;2023-05-23T03:48:03;99825.25;;;13.52;100.00
24858;BME280;12935;50.782;6.074;2023-05-23T03:50:28;99824.09;;;13.50;100.00
24858;BME280;12935;50.782;6.074;2023-05-23T03:52:54;99814.34;;;13.42;100.00
24858;BME280;12935;50.782;6.074;2023-05-23T03:55:20;99827.28;;;13.45;100.00
24858;BME280;12935;50.782;6.074;2023-05-23T03:57:49;99833.53;;;13.45;100.00
24858;BME280;12935;50.782;6.074;2023-05-23T04:00:15;99835.88;;;13.47;100.00
24858;BME280;12935;50.782;6.074;2023-05-23T04:02:40;99842.16;;;13.47;100.00
24858;BME280;12935;50.782;6.074;2023-05-23T04:05:06;99835.88;;;13.47;100.00
24858;BME280;12935;50.782;6.074;2023-05-23T04:07:32;99839.06;;;13.42;100.00
24858;BME280;12935;50.782;6.074;2023-05-23T04:10:01;99836.72;;;13.40;100.00
24858;BME280;12935;50.782;6.074;2023-05-23T04:12:27;99833.59;;;13.38;100.00
24858;BME280;12935;50.782;6.074;2023-05-23T04:14:54;99837.44;;;13.48;100.00
24858;BME280;12935;50.782;6.074;2023-05-23T04:17:19;99846.13;;;13.43;100.00
24858;BME280;12935;50.782;6.074;2023-05-23T04:19:45;99840.59;;;13.46;100.00
24858;BME280;12935;50.782;6.074;2023-05-23T04:22:10;99861.75;;;13.49;100.00
24858;BME280;12935;50.782;6.074;2023-05-23T04:24:36;99860.19;;;13.52;100.00
24858;BME280;12935;50.782;6.074;2023-05-23T04:27:01;99859.06;;;13.42;100.00
24858;BME280;12935;50.782;6.074;2023-05-23T04:29:27;99862.97;;;13.41;100.00
24858;BME280;12935;50.782;6.074;2023-05-23T04:31:55;99865.00;;;13.37;100.00
24858;BME280;12935;50.782;6.074;2023-05-23T04:34:20;99861.41;;;13.44;100.00
24858;BME280;12935;50.782;6.074;2023-05-23T04:36:46;99864.16;;;13.44;100.00
24858;BME280;12935;50.782;6.074;2023-05-23T04:39:12;99867.28;;;13.42;100.00
24858;BME280;12935;50.782;6.074;2023-05-23T04:41:38;99870.06;;;13.39;100.00
24858;BME280;12935;50.782;6.074;2023-05-23T04:44:04;99876.31;;;13.39;100.00
24858;BME280;12935;50.782;6.074;2023-05-23T04:46:30;99870.50;;;13.33;100.00
24858;BME280;12935;50.782;6.074;2023-05-23T04:48:56;99863.44;;;13.32;100.00
24858;BME280;12935;50.782;6.074;2023-05-23T04:51:22;99858.34;;;13.31;100.00
24858;BME280;12935;50.782;6.074;2023-05-23T04:53:50;99845.84;;;13.26;100.00
24858;BME280;12935;50.782;6.074;2023-05-23T04:56:15;99850.50;;;13.33;100.00
24858;BME280;12935;50.782;6.074;2023-05-23T04:58:42;99855.59;;;13.34;100.00
24858;BME280;12935;50.782;6.074;2023-05-23T05:01:09;99857.19;;;13.28;100.00
24858;BME280;12935;50.782;6.074;2023-05-23T05:03:35;99852.91;;;13.24;100.00
24858;BME280;12935;50.782;6.074;2023-05-23T05:06:01;99861.13;;;13.27;100.00
24858;BME280;12935;50.782;6.074;2023-05-23T05:08:26;99860.75;;;13.25;100.00
24858;BME280;12935;50.782;6.074;2023-05-23T05:10:53;99857.63;;;13.23;100.00
24858;BME280;12935;50.782;6.074;2023-05-23T05:13:18;99857.59;;;13.27;100.00
24858;BME280;12935;50.782;6.074;2023-05-23T05:15:44;99864.25;;;13.29;100.00
24858;BME280;12935;50.782;6.074;2023-05-23T05:18:09;99871.31;;;13.27;100.00
24858;BME280;12935;50.782;6.074;2023-05-23T05:20:36;99876.03;;;13.26;100.00
24858;BME280;12935;50.782;6.074;2023-05-23T05:23:01;99872.47;;;13.29;100.00
24858;BME280;12935;50.782;6.074;2023-05-23T05:25:27;99868.19;;;13.28;100.00
24858;BME280;12935;50.782;6.074;2023-05-23T05:27:56;99879.53;;;13.30;100.00
24858;BME280;12935;50.782;6.074;2023-05-23T05:30:21;99861.53;;;13.26;100.00
24858;BME280;12935;50.782;6.074;2023-05-23T05:32:46;99871.22;;;13.41;100.00
24858;BME280;12935;50.782;6.074;2023-05-23T05:35:12;99864.22;;;13.33;100.00
24858;BME280;12935;50.782;6.074;2023-05-23T05:37:40;99872.84;;;13.35;100.00
24858;BME280;12935;50.782;6.074;2023-05-23T05:40:06;99876.03;;;13.26;100.00
24858;BME280;12935;50.782;6.074;2023-05-23T05:42:32;99880.69;;;13.33;100.00
24858;BME280;12935;50.782;6.074;2023-05-23T05:44:58;99885.41;;;13.32;100.00
24858;BME280;12935;50.782;6.074;2023-05-23T05:47:23;99875.69;;;13.21;100.00
24858;BME280;12935;50.782;6.074;2023-05-23T05:49:48;99889.34;;;13.28;100.00
24858;BME280;12935;50.782;6.074;2023-05-23T05:52:14;99887.41;;;13.25;100.00
24858;BME280;12935;50.782;6.074;2023-05-23T05:54:39;99883.09;;;13.24;100.00
24858;BME280;12935;50.782;6.074;2023-05-23T05:57:04;99885.88;;;13.13;100.00
24858;BME280;12935;50.782;6.074;2023-05-23T05:59:30;99889.03;;;13.19;100.00
24858;BME280;12935;50.782;6.074;2023-05-23T06:01:55;99899.59;;;13.20;100.00
24858;BME280;12935;50.782;6.074;2023-05-23T06:04:20;99897.59;;;13.28;100.00
24858;BME280;12935;50.782;6.074;2023-05-23T06:06:46;99890.13;;;13.28;100.00
24858;BME280;12935;50.782;6.074;2023-05-23T06:09:11;99898.34;;;13.32;100.00
24858;BME280;12935;50.782;6.074;2023-05-23T06:11:36;99894.41;;;13.37;100.00
24858;BME280;12935;50.782;6.074;2023-05-23T06:14:05;99889.31;;;13.35;100.00
24858;BME280;12935;50.782;6.074;2023-05-23T06:16:30;99899.53;;;13.27;100.00
24858;BME280;12935;50.782;6.074;2023-05-23T06:18:55;99904.25;;;13.27;100.00
24858;BME280;12935;50.782;6.074;2023-05-23T06:21:21;99908.16;;;13.29;100.00
24858;BME280;12935;50.782;6.074;2023-05-23T06:23:46;99904.63;;;13.29;100.00
24858;BME280;12935;50.782;6.074;2023-05-23T06:26:11;99905.41;;;13.29;100.00
24858;BME280;12935;50.782;6.074;2023-05-23T06:28:37;99908.56;;;13.24;100.00
24858;BME280;12935;50.782;6.074;2023-05-23T06:31:06;99914.06;;;13.28;100.00
24858;BME280;12935;50.782;6.074;2023-05-23T06:33:34;99909.34;;;13.28;100.00
24858;BME280;12935;50.782;6.074;2023-05-23T06:35:59;99915.53;;;13.40;100.00
24858;BME280;12935;50.782;6.074;2023-05-23T06:38:26;99913.56;;;13.40;100.00
24858;BME280;12935;50.782;6.074;2023-05-23T06:40:51;99911.22;;;13.39;100.00
24858;BME280;12935;50.782;6.074;2023-05-23T06:43:17;99922.97;;;13.43;100.00
24858;BME280;12935;50.782;6.074;2023-05-23T06:45:44;99919.84;;;13.41;100.00
24858;BME280;12935;50.782;6.074;2023-05-23T06:48:10;99921.41;;;13.42;100.00
24858;BME280;12935;50.782;6.074;2023-05-23T06:50:35;99921.03;;;13.40;100.00
24858;BME280;12935;50.782;6.074;2023-05-23T06:53:01;99930.09;;;13.37;100.00
24858;BME280;12935;50.782;6.074;2023-05-23T06:55:26;99925.03;;;13.28;100.00
24858;BME280;12935;50.782;6.074;2023-05-23T06:57:52;99932.06;;;13.32;100.00
24858;BME280;12935;50.782;6.074;2023-05-23T07:00:17;99939.88;;;13.38;100.00
24858;BME280;12935;50.782;6.074;2023-05-23T07:02:43;99939.47;;;13.39;100.00
24858;BME280;12935;50.782;6.074;2023-05-23T07:05:13;99938.69;;;13.39;100.00
24858;BME280;12935;50.782;6.074;2023-05-23T07:07:38;99940.28;;;13.36;100.00
24858;BME280;12935;50.782;6.074;2023-05-23T07:10:04;99940.69;;;13.34;100.00
24858;BME280;12935;50.782;6.074;2023-05-23T07:12:29;99942.63;;;13.38;100.00
24858;BME280;12935;50.782;6.074;2023-05-23T07:14:54;99944.59;;;13.37;100.00
24858;BME280;12935;50.782;6.074;2023-05-23T07:17:20;99940.72;;;13.27;100.00
24858;BME280;12935;50.782;6.074;2023-05-23T07:19:45;99947.38;;;13.26;100.00
24858;BME280;12935;50.782;6.074;2023-05-23T07:22:10;99948.16;;;13.27;100.00
24858;BME280;12935;50.782;6.074;2023-05-23T07:24:35;99952.88;;;13.26;100.00
24858;BME280;12935;50.782;6.074;2023-05-23T07:27:01;99947.75;;;13.28;100.00
24858;BME280;12935;50.782;6.074;2023-05-23T07:29:26;99957.16;;;13.31;100.00
24858;BME280;12935;50.782;6.074;2023-05-23T07:31:51;99959.91;;;13.34;100.00
24858;BME280;12935;50.782;6.074;2023-05-23T07:34:17;99956.34;;;13.38;100.00
24858;BME280;12935;50.782;6.074;2023-05-23T07:36:43;99947.38;;;13.30;100.00
24858;BME280;12935;50.782;6.074;2023-05-23T07:39:08;99955.59;;;13.33;100.00
24858;BME280;12935;50.782;6.074;2023-05-23T07:41:33;99953.25;;;13.28;100.00
24858;BME280;12935;50.782;6.074;2023-05-23T07:43:58;99958.75;;;13.28;100.00
24858;BME280;12935;50.782;6.074;2023-05-23T07:46:24;99951.31;;;13.25;100.00
24858;BME280;12935;50.782;6.074;2023-05-23T07:48:49;99956.00;;;13.28;100.00
24858;BME280;12935;50.782;6.074;2023-05-23T07:51:14;99960.69;;;13.31;100.00
24858;BME280;12935;50.782;6.074;2023-05-23T07:53:45;99956.78;;;13.29;100.00
24858;BME280;12935;50.782;6.074;2023-05-23T07:56:10;99966.91;;;13.39;100.00
24858;BME280;12935;50.782;6.074;2023-05-23T07:58:36;99968.06;;;13.42;100.00
24858;BME280;12935;50.782;6.074;2023-05-23T08:01:01;99961.03;;;13.41;100.00
24858;BME280;12935;50.782;6.074;2023-05-23T08:03:27;99965.38;;;13.34;100.00
24858;BME280;12935;50.782;6.074;2023-05-23T08:05:52;99964.22;;;13.36;100.00
24858;BME280;12935;50.782;6.074;2023-05-23T08:08:18;99965.72;;;13.44;100.00
24858;BME280;12935;50.782;6.074;2023-05-23T08:10:43;99968.84;;;13.42;100.00
24858;BME280;12935;50.782;6.074;2023-05-23T08:13:09;99973.56;;;13.38;100.00
24858;BME280;12935;50.782;6.074;2023-05-23T08:15:35;99969.25;;;13.44;100.00
24858;BME280;12935;50.782;6.074;2023-05-23T08:18:00;99971.22;;;13.40;100.00
24858;BME280;12935;50.782;6.074;2023-05-23T08:20:26;99974.75;;;13.41;100.00
24858;BME280;12935;50.782;6.074;2023-05-23T08:22:59;99978.66;;;13.43;100.00
24858;BME280;12935;50.782;6.074;2023-05-23T08:25:25;99982.25;;;13.33;100.00
24858;BME280;12935;50.782;6.074;2023-05-23T08:27:55;99981.88;;;13.24;100.00
24858;BME280;12935;50.782;6.074;2023-05-23T08:30:20;99981.88;;;13.24;100.00
24858;BME280;12935;50.782;6.074;2023-05-23T08:32:47;99990.56;;;13.08;100.00
24858;BME280;12935;50.782;6.074;2023-05-23T08:35:12;99983.09;;;13.09;100.00
24858;BME280;12935;50.782;6.074;2023-05-23T08:37:37;99987.47;;;13.03;100.00
24858;BME280;12935;50.782;6.074;2023-05-23T08:40:06;99996.88;;;13.02;100.00
24858;BME280;12935;50.782;6.074;2023-05-23T08:42:32;99993.34;;;12.94;100.00
24858;BME280;12935;50.782;6.074;2023-05-23T08:44:57;99993.00;;;12.88;100.00
24858;BME280;12935;50.782;6.074;2023-05-23T08:47:23;100005.88;;;12.95;100.00
24858;BME280;12935;50.782;6.074;2023-05-23T08:49:50;99998.44;;;13.06;100.00
24858;BME280;12935;50.782;6.074;2023-05-23T08:52:17;100000.72;;;13.11;100.00
24858;BME280;12935;50.782;6.074;2023-05-23T08:54:46;99986.69;;;13.02;100.00
24858;BME280;12935;50.782;6.074;2023-05-23T08:57:12;100000.78;;;13.04;100.00
24858;BME280;12935;50.782;6.074;2023-05-23T08:59:37;100003.13;;;13.02;100.00
24858;BME280;12935;50.782;6.074;2023-05-23T09:02:07;100005.09;;;12.98;100.00
24858;BME280;12935;50.782;6.074;2023-05-23T09:04:34;100005.50;;;12.93;100.00
24858;BME280;12935;50.782;6.074;2023-05-23T09:07:01;100013.00;;;12.78;100.00
24858;BME280;12935;50.782;6.074;2023-05-23T09:09:26;100014.97;;;12.63;100.00
24858;BME280;12935;50.782;6.074;2023-05-23T09:11:54;100017.72;;;12.60;100.00
24858;BME280;12935;50.782;6.074;2023-05-23T09:14:19;100023.22;;;12.63;100.00
24858;BME280;12935;50.782;6.074;2023-05-23T09:16:47;100014.97;;;12.63;100.00
24858;BME280;12935;50.782;6.074;2023-05-23T09:19:13;100027.91;;;12.70;100.00
24858;BME280;12935;50.782;6.074;2023-05-23T09:21:43;100023.16;;;12.85;100.00
24858;BME280;12935;50.782;6.074;2023-05-23T09:24:10;100023.53;;;12.94;100.00
24858;BME280;12935;50.782;6.074;2023-05-23T09:26:36;100028.59;;;13.20;100.00
24858;BME280;12935;50.782;6.074;2023-05-23T09:29:04;100025.31;;;13.50;100.00
24858;BME280;12935;50.782;6.074;2023-05-23T09:31:30;100029.16;;;13.63;100.00
24858;BME280;12935;50.782;6.074;2023-05-23T09:33:57;100031.00;;;13.81;100.00
24858;BME280;12935;50.782;6.074;2023-05-23T09:36:26;100035.84;;;13.59;100.00
24858;BME280;12935;50.782;6.074;2023-05-23T09:38:53;100038.19;;;13.60;100.00
24858;BME280;12935;50.782;6.074;2023-05-23T09:41:19;100053.94;;;13.46;100.00
24858;BME280;12935;50.782;6.074;2023-05-23T09:43:49;100053.50;;;13.54;100.00
24858;BME280;12935;50.782;6.074;2023-05-23T09:46:15;100043.19;;;13.80;100.00
24858;BME280;12935;50.782;6.074;2023-05-23T09:48:48;100049.38;;;13.91;100.00
24858;BME280;12935;50.782;6.074;2023-05-23T09:51:18;100054.72;;;14.16;100.00
24858;BME280;12935;50.782;6.074;2023-05-23T09:53:43;100052.19;;;14.35;100.00
24858;BME280;12935;50.782;6.074;2023-05-23T09:56:09;100056.69;;;14.12;100.00
24858;BME280;12935;50.782;6.074;2023-05-23T09:58:37;100055.94;;;14.04;100.00
24858;BME280;12935;50.782;6.074;2023-05-23T10:01:06;100057.31;;;13.78;100.00
24858;BME280;12935;50.782;6.074;2023-05-23T10:03:51;100054.28;;;13.58;100.00
24858;BME280;12935;50.782;6.074;2023-05-23T10:06:22;100061.16;;;13.88;100.00
24858;BME280;12935;50.782;6.074;2023-05-23T10:09:09;100067.56;;;14.29;100.00
24858;BME280;12935;50.782;6.074;2023-05-23T10:14:44;100067.84;;;14.46;100.00
24858;BME280;12935;50.782;6.074;2023-05-23T10:17:26;100068.03;;;14.69;100.00
24858;BME280;12935;50.782;6.074;2023-05-23T10:20:00;100072.88;;;14.95;100.00
24858;BME280;12935;50.782;6.074;2023-05-23T10:22:28;100077.06;;;15.11;100.00
24858;BME280;12935;50.782;6.074;2023-05-23T10:24:54;100069.84;;;15.54;100.00
24858;BME280;12935;50.782;6.074;2023-05-23T10:27:19;100068.69;;;15.55;100.00
24858;BME280;12935;50.782;6.074;2023-05-23T10:29:45;100070.84;;;15.03;100.00
24858;BME280;12935;50.782;6.074;2023-05-23T10:32:11;100071.75;;;14.89;100.00
24858;BME280;12935;50.782;6.074;2023-05-23T10:37:41;100069.13;;;14.79;100.00
24858;BME280;12935;50.782;6.074;2023-05-23T10:40:26;100065.25;;;14.72;100.00
24858;BME280;12935;50.782;6.074;2023-05-23T10:45:26;100076.16;;;14.80;100.00
24858;BME280;12935;50.782;6.074;2023-05-23T10:47:53;100074.53;;;14.86;100.00
24858;BME280;12935;50.782;6.074;2023-05-23T10:50:33;100074.38;;;15.03;100.00
24858;BME280;12935;50.782;6.074;2023-05-23T10:53:00;100070.13;;;14.95;100.00
24858;BME280;12935;50.782;6.074;2023-05-23T10:55:30;100064.19;;;14.97;100.00
24858;BME280;12935;50.782;6.074;2023-05-23T10:58:11;100068.25;;;15.23;100.00
24858;BME280;12935;50.782;6.074;2023-05-23T11:00:37;100066.41;;;15.77;100.00
24858;BME280;12935;50.782;6.074;2023-05-23T11:03:04;100078.56;;;16.06;100.00
24858;BME280;12935;50.782;6.074;2023-05-23T11:05:31;100057.19;;;16.64;100.00
24858;BME280;12935;50.782;6.074;2023-05-23T11:08:11;100070.84;;;15.98;100.00
24858;BME280;12935;50.782;6.074;2023-05-23T11:11:03;100066.06;;;15.41;100.00
24858;BME280;12935;50.782;6.074;2023-05-23T11:13:57;100074.25;;;15.14;100.00
24858;BME280;12935;50.782;6.074;2023-05-23T11:16:31;100081.44;;;15.04;100.00
24858;BME280;12935;50.782;6.074;2023-05-23T11:21:43;100073.75;;;14.89;100.00
24858;BME280;12935;50.782;6.074;2023-05-23T11:24:09;100077.91;;;15.04;100.00
24858;BME280;12935;50.782;6.074;2023-05-23T11:26:34;100077.72;;;15.22;100.00
24858;BME280;12935;50.782;6.074;2023-05-23T11:28:59;100080.44;;;15.25;100.00
24858;BME280;12935;50.782;6.074;2023-05-23T11:31:27;100071.03;;;15.19;100.00
24858;BME280;12935;50.782;6.074;2023-05-23T11:33:53;100078.97;;;15.14;100.00
24858;BME280;12935;50.782;6.074;2023-05-23T11:36:20;100073.41;;;15.21;100.00
24858;BME280;12935;50.782;6.074;2023-05-23T11:38:47;100082.47;;;15.18;100.00
24858;BME280;12935;50.782;6.074;2023-05-23T11:41:13;100073.16;;;15.08;100.00
24858;BME280;12935;50.782;6.074;2023-05-23T11:43:49;100062.78;;;14.82;100.00
24858;BME280;12935;50.782;6.074;2023-05-23T11:46:14;100082.41;;;14.87;100.00
24858;BME280;12935;50.782;6.074;2023-05-23T11:48:44;100080.00;;;15.27;100.00
24858;BME280;12935;50.782;6.074;2023-05-23T11:51:09;100077.78;;;15.49;100.00
24858;BME280;12935;50.782;6.074;2023-05-23T11:53:35;100084.69;;;15.64;100.00
24858;BME280;12935;50.782;6.074;2023-05-23T11:56:01;100080.97;;;15.43;100.00
24858;BME280;12935;50.782;6.074;2023-05-23T11:58:37;100082.03;;;15.23;100.00
24858;BME280;12935;50.782;6.074;2023-05-23T12:01:05;100085.66;;;15.13;100.00
24858;BME280;12935;50.782;6.074;2023-05-23T12:03:31;100087.22;;;15.14;100.00
24858;BME280;12935;50.782;6.074;2023-05-23T12:05:57;100091.00;;;15.27;100.00
24858;BME280;12935;50.782;6.074;2023-05-23T12:08:23;100094.19;;;15.25;100.00
24858;BME280;12935;50.782;6.074;2023-05-23T12:10:55;100085.25;;;15.14;100.00
24858;BME280;12935;50.782;6.074;2023-05-23T12:13:25;100086.75;;;15.22;100.00
24858;BME280;12935;50.782;6.074;2023-05-23T12:15:56;100081.41;;;15.42;100.00
24858;BME280;12935;50.782;6.074;2023-05-23T12:18:22;100088.88;;;15.41;100.00
24858;BME280;12935;50.782;6.074;2023-05-23T12:20:52;100089.75;;;15.35;100.00
24858;BME280;12935;50.782;6.074;2023-05-23T12:23:22;100087.22;;;15.14;100.00
24858;BME280;12935;50.782;6.074;2023-05-23T12:25:51;100086.06;;;15.11;100.00
24858;BME280;12935;50.782;6.074;2023-05-23T12:28:18;100093.69;;;14.96;100.00
24858;BME280;12935;50.782;6.074;2023-05-23T12:30:44;100097.34;;;14.86;100.00
24858;BME280;12935;50.782;6.074;2023-05-23T12:33:10;100085.97;;;14.84;100.00
24858;BME280;12935;50.782;6.074;2023-05-23T12:35:36;100091.03;;;14.89;100.00
24858;BME280;12935;50.782;6.074;2023-05-23T12:38:04;100087.03;;;15.31;100.00
24858;BME280;12935;50.782;6.074;2023-05-23T12:40:31;100090.56;;;16.46;100.00
24858;BME280;12935;50.782;6.074;2023-05-23T12:42:57;100087.84;;;17.13;97.81
24858;BME280;12935;50.782;6.074;2023-05-23T12:45:32;100082.03;;;17.07;91.92
24858;BME280;12935;50.782;6.074;2023-05-23T12:47:58;100088.97;;;16.96;90.77
24858;BME280;12935;50.782;6.074;2023-05-23T12:50:23;100080.06;;;16.84;95.58
24858;BME280;12935;50.782;6.074;2023-05-23T12:52:50;100075.59;;;16.47;95.77
24858;BME280;12935;50.782;6.074;2023-05-23T12:55:16;100089.19;;;16.35;95.47
24858;BME280;12935;50.782;6.074;2023-05-23T12:57:41;100084.47;;;16.35;94.62
24858;BME280;12935;50.782;6.074;2023-05-23T13:00:07;100085.44;;;16.72;92.60
24858;BME280;12935;50.782;6.074;2023-05-23T13:02:33;100082.34;;;17.13;87.49
24858;BME280;12935;50.782;6.074;2023-05-23T13:04:58;100090.69;;;16.66;85.71